createdAt,value
2023-03-22T00:02:10.337Z,10.60
2023-03-22T00:04:36.985Z,10.60
2023-03-22T00:07:03.640Z,10.60
2023-03-22T00:09:30.784Z,10.70
2023-03-22T00:11:57.486Z,10.70
2023-03-22T00:14:24.194Z,10.70
2023-03-22T00:16:50.999Z,10.70
2023-03-22T00:19:17.722Z,10.70
2023-03-22T00:21:44.817Z,10.70
2023-03-22T00:24:11.600Z,10.70
2023-03-22T00:26:38.273Z,10.70
2023-03-22T00:29:05.287Z,10.80
2023-03-22T00:31:32.225Z,10.80
2023-03-22T00:33:59.050Z,10.90
2023-03-22T00:36:26.072Z,10.90
2023-03-22T00:38:52.775Z,10.90
2023-03-22T00:41:22.009Z,10.90
2023-03-22T00:43:50.399Z,10.90
2023-03-22T00:46:19.864Z,10.90
2023-03-22T00:48:46.930Z,10.90
2023-03-22T00:51:14.784Z,10.90
2023-03-22T00:53:43.543Z,10.90
2023-03-22T00:56:13.961Z,10.90
2023-03-22T00:58:41.418Z,10.90
2023-03-22T01:01:08.257Z,10.90
2023-03-22T01:03:35.195Z,10.90
2023-03-22T01:06:02.051Z,10.80
2023-03-22T01:08:33.400Z,10.80
2023-03-22T01:11:01.254Z,10.80
2023-03-22T01:13:28.963Z,10.70
2023-03-22T01:15:56.012Z,10.70
2023-03-22T01:18:23.452Z,10.50
2023-03-22T01:20:51.216Z,10.40
2023-03-22T01:23:17.890Z,10.40
2023-03-22T01:25:44.567Z,10.40
2023-03-22T01:28:11.319Z,10.50
2023-03-22T01:30:40.820Z,10.50
2023-03-22T01:33:08.134Z,10.50
2023-03-22T01:35:35.994Z,10.50
2023-03-22T01:38:03.725Z,10.60
2023-03-22T01:40:30.473Z,10.60
2023-03-22T01:42:57.209Z,10.50
2023-03-22T01:45:35.071Z,10.50
2023-03-22T01:48:12.453Z,10.50
2023-03-22T01:50:44.594Z,10.50
2023-03-22T01:53:14.122Z,10.50
2023-03-22T01:55:42.251Z,10.50
2023-03-22T01:58:09.302Z,10.50
2023-03-22T02:00:36.851Z,10.40
2023-03-22T02:03:06.119Z,10.40
2023-03-22T02:05:33.204Z,10.30
2023-03-22T02:08:00.014Z,10.20
2023-03-22T02:10:28.040Z,10.20
2023-03-22T02:13:24.027Z,10.20
2023-03-22T02:16:00.005Z,10.10
2023-03-22T02:18:26.678Z,10.00
2023-03-22T02:21:20.619Z,10.00
2023-03-22T02:23:47.317Z,9.90
2023-03-22T02:26:47.192Z,9.80
2023-03-22T02:29:35.030Z,9.80
2023-03-22T02:32:46.894Z,9.80
2023-03-22T02:35:16.638Z,9.80
2023-03-22T02:38:03.238Z,9.70
2023-03-22T02:40:50.524Z,9.80
2023-03-22T02:43:34.099Z,9.70
2023-03-22T02:46:18.144Z,9.70
2023-03-22T02:48:52.479Z,9.60
2023-03-22T02:51:29.833Z,9.60
2023-03-22T02:54:01.391Z,9.50
2023-03-22T02:56:39.335Z,9.50
2023-03-22T02:59:08.081Z,9.50
2023-03-22T03:01:46.384Z,9.50
2023-03-22T03:04:19.402Z,9.50
2023-03-22T03:06:49.457Z,9.50
2023-03-22T03:09:19.281Z,9.50
2023-03-22T03:11:48.523Z,9.40
2023-03-22T03:14:22.417Z,9.40
2023-03-22T03:17:01.843Z,9.40
2023-03-22T03:19:37.236Z,9.30
2023-03-22T03:22:29.427Z,9.30
2023-03-22T03:25:24.803Z,9.30
2023-03-22T03:27:57.479Z,9.30
2023-03-22T03:30:40.798Z,9.20
2023-03-22T03:33:16.598Z,9.20
2023-03-22T03:35:53.420Z,9.10
2023-03-22T03:38:26.351Z,9.10
2023-03-22T03:40:59.028Z,9.00
2023-03-22T03:43:25.871Z,9.00
2023-03-22T03:45:54.290Z,8.90
2023-03-22T03:48:27.949Z,8.80
2023-03-22T03:50:56.674Z,8.80
2023-03-22T03:53:23.545Z,8.70
2023-03-22T03:55:50.409Z,8.70
2023-03-22T03:58:17.131Z,8.70
2023-03-22T04:00:46.011Z,8.60
2023-03-22T04:03:12.994Z,8.60
2023-03-22T04:05:39.972Z,8.60
2023-03-22T04:08:06.949Z,8.50
2023-03-22T04:10:33.666Z,8.50
2023-03-22T04:13:00.387Z,8.50
2023-03-22T04:15:27.114Z,8.40
2023-03-22T04:17:54.575Z,8.40
2023-03-22T04:20:21.392Z,8.40
2023-03-22T04:22:48.996Z,8.40
2023-03-22T04:25:18.271Z,8.40
2023-03-22T04:27:50.217Z,8.30
2023-03-22T04:30:22.250Z,8.30
2023-03-22T04:32:49.718Z,8.30
2023-03-22T04:35:16.942Z,8.30
2023-03-22T04:37:44.366Z,8.40
2023-03-22T04:40:17.109Z,8.30
2023-03-22T04:42:44.759Z,8.40
2023-03-22T04:45:12.482Z,8.40
2023-03-22T04:47:39.380Z,8.50
2023-03-22T04:50:07.498Z,8.50
2023-03-22T04:52:34.175Z,8.60
2023-03-22T04:55:00.867Z,8.60
2023-03-22T04:57:27.558Z,8.60
2023-03-22T04:59:54.277Z,8.60
2023-03-22T05:02:21.165Z,8.60
2023-03-22T05:04:47.901Z,8.60
2023-03-22T05:07:14.665Z,8.60
2023-03-22T05:09:41.421Z,8.60
2023-03-22T05:12:08.162Z,8.60
2023-03-22T05:14:34.885Z,8.70
2023-03-22T05:17:01.687Z,8.70
2023-03-22T05:19:28.993Z,8.70
2023-03-22T05:21:58.487Z,8.80
2023-03-22T05:24:25.544Z,8.70
2023-03-22T05:26:53.870Z,8.80
2023-03-22T05:29:21.456Z,8.80
2023-03-22T05:31:48.736Z,8.80
2023-03-22T05:34:15.613Z,8.80
2023-03-22T05:36:42.278Z,8.80
2023-03-22T05:39:09.204Z,8.80
2023-03-22T05:41:36.907Z,8.90
2023-03-22T05:44:04.872Z,8.90
2023-03-22T05:46:31.704Z,8.90
2023-03-22T05:48:58.395Z,9.00
2023-03-22T05:51:25.936Z,9.00
2023-03-22T05:53:53.583Z,9.10
2023-03-22T05:56:24.419Z,9.20
2023-03-22T05:58:51.864Z,9.40
2023-03-22T06:01:20.398Z,9.40
2023-03-22T06:03:48.725Z,9.60
2023-03-22T06:06:15.766Z,9.80
2023-03-22T06:08:42.808Z,9.90
2023-03-22T06:11:09.895Z,10.00
2023-03-22T06:13:37.450Z,10.10
2023-03-22T06:16:05.360Z,10.20
2023-03-22T06:18:33.278Z,10.30
2023-03-22T06:21:00.623Z,10.40
2023-03-22T06:23:27.780Z,10.60
2023-03-22T06:25:54.459Z,10.60
2023-03-22T06:28:21.321Z,10.60
2023-03-22T06:30:48.013Z,10.70
2023-03-22T06:33:14.735Z,10.80
2023-03-22T06:35:41.473Z,10.80
2023-03-22T06:38:08.210Z,10.90
2023-03-22T06:40:35.772Z,10.90
2023-03-22T06:43:06.361Z,10.90
2023-03-22T06:45:33.738Z,11.00
2023-03-22T06:48:01.109Z,11.20
2023-03-22T06:50:29.238Z,11.10
2023-03-22T06:52:56.262Z,11.30
2023-03-22T06:55:23.096Z,11.40
2023-03-22T06:57:49.813Z,11.50
2023-03-22T07:00:16.990Z,11.60
2023-03-22T07:02:43.704Z,11.60
2023-03-22T07:05:10.682Z,11.60
2023-03-22T07:07:37.362Z,11.70
2023-03-22T07:10:04.970Z,11.70
2023-03-22T07:12:31.694Z,11.70
2023-03-22T07:14:58.738Z,11.70
2023-03-22T07:17:25.413Z,11.60
2023-03-22T07:19:52.111Z,11.70
2023-03-22T07:22:22.200Z,11.70
2023-03-22T07:24:56.681Z,11.70
2023-03-22T07:27:24.701Z,11.80
2023-03-22T07:29:51.528Z,11.80
2023-03-22T07:32:18.370Z,11.90
2023-03-22T07:34:45.393Z,12.10
2023-03-22T07:37:12.101Z,12.20
2023-03-22T07:39:38.849Z,12.40
2023-03-22T07:42:05.648Z,12.50
2023-03-22T07:44:32.444Z,12.50
2023-03-22T07:46:59.292Z,12.70
2023-03-22T07:49:27.127Z,13.00
2023-03-22T07:51:53.952Z,13.20
2023-03-22T07:54:32.951Z,13.40
2023-03-22T07:57:01.577Z,13.60
2023-03-22T07:59:28.410Z,13.60
2023-03-22T08:01:55.362Z,13.70
2023-03-22T08:04:22.516Z,13.50
2023-03-22T08:06:49.861Z,13.50
2023-03-22T08:09:17.237Z,13.30
2023-03-22T08:11:43.935Z,13.20
2023-03-22T08:14:10.804Z,13.20
2023-03-22T08:16:38.413Z,13.20
2023-03-22T08:19:05.296Z,13.30
2023-03-22T08:21:31.970Z,13.30
2023-03-22T08:23:58.647Z,13.50
2023-03-22T08:26:26.173Z,13.60
2023-03-22T08:28:53.239Z,13.70
2023-03-22T08:31:20.383Z,13.80
2023-03-22T08:33:50.671Z,13.80
2023-03-22T08:36:19.985Z,13.90
2023-03-22T08:38:46.647Z,13.90
2023-03-22T08:41:13.674Z,13.80
2023-03-22T08:43:40.509Z,13.90
2023-03-22T08:46:07.866Z,13.90
2023-03-22T08:48:37.927Z,13.90
2023-03-22T08:51:06.481Z,14.20
2023-03-22T08:53:33.288Z,14.20
2023-03-22T08:56:01.651Z,14.40
2023-03-22T08:58:28.522Z,14.70
2023-03-22T09:00:55.321Z,15.10
2023-03-22T09:03:23.985Z,15.30
2023-03-22T09:05:51.054Z,15.30
2023-03-22T09:08:19.594Z,15.30
2023-03-22T09:10:52.032Z,15.30
2023-03-22T09:13:20.018Z,15.20
2023-03-22T09:15:47.525Z,15.10
2023-03-22T09:18:14.639Z,15.00
2023-03-22T09:20:41.653Z,14.80
2023-03-22T09:23:08.544Z,14.60
2023-03-22T09:25:35.453Z,14.40
2023-03-22T09:28:02.535Z,16.40
2023-03-22T09:30:29.272Z,14.40
2023-03-22T09:32:56.152Z,14.40
2023-03-22T09:35:23.177Z,14.70
2023-03-22T09:37:53.154Z,14.90
2023-03-22T09:40:21.729Z,15.00
2023-03-22T09:42:52.224Z,14.90
2023-03-22T09:45:25.153Z,14.80
2023-03-22T09:47:55.803Z,15.10
2023-03-22T09:50:25.385Z,15.30
2023-03-22T09:52:53.386Z,15.60
2023-03-22T09:55:27.716Z,15.70
2023-03-22T09:58:17.375Z,15.70
2023-03-22T10:00:48.191Z,15.50
2023-03-22T10:03:32.855Z,15.40
2023-03-22T10:06:09.302Z,15.40
2023-03-22T10:08:54.621Z,15.50
2023-03-22T10:11:24.404Z,15.50
2023-03-22T10:13:56.787Z,15.70
2023-03-22T10:16:29.390Z,15.80
2023-03-22T10:19:08.085Z,15.70
2023-03-22T10:21:35.858Z,15.70
2023-03-22T10:24:19.284Z,15.70
2023-03-22T10:26:47.896Z,15.70
2023-03-22T10:29:40.506Z,15.50
2023-03-22T10:32:15.939Z,15.60
2023-03-22T10:34:43.750Z,15.40
2023-03-22T10:37:29.841Z,15.50
2023-03-22T10:39:58.741Z,15.60
2023-03-22T10:42:28.711Z,15.70
2023-03-22T10:45:01.299Z,15.70
2023-03-22T10:47:43.106Z,16.00
2023-03-22T10:50:19.475Z,16.10
2023-03-22T10:53:15.568Z,16.00
2023-03-22T10:55:43.927Z,16.30
2023-03-22T10:58:20.780Z,16.20
2023-03-22T11:01:07.228Z,16.00
2023-03-22T11:03:48.478Z,15.80
2023-03-22T11:06:25.954Z,15.80
2023-03-22T11:08:52.668Z,15.90
2023-03-22T11:11:24.738Z,16.00
2023-03-22T11:14:07.859Z,16.00
2023-03-22T11:16:45.660Z,15.90
2023-03-22T11:19:18.854Z,16.00
2023-03-22T11:21:45.720Z,16.10
2023-03-22T11:24:15.338Z,15.90
2023-03-22T11:26:42.341Z,15.80
2023-03-22T11:29:19.607Z,15.70
2023-03-22T11:31:55.914Z,15.70
2023-03-22T11:34:26.354Z,15.60
2023-03-22T11:36:57.059Z,15.70
2023-03-22T11:39:29.147Z,15.60
2023-03-22T11:42:06.234Z,15.70
2023-03-22T11:44:35.565Z,15.80
2023-03-22T11:47:04.196Z,16.00
2023-03-22T11:49:39.073Z,16.00
2023-03-22T11:52:11.519Z,15.90
2023-03-22T11:54:42.274Z,15.70
2023-03-22T11:57:24.310Z,15.60
2023-03-22T11:59:56.715Z,15.50
2023-03-22T12:02:33.162Z,15.30
2023-03-22T12:05:18.090Z,15.10
2023-03-22T12:07:46.871Z,15.10
2023-03-22T12:10:21.194Z,15.00
2023-03-22T12:13:10.328Z,14.90
2023-03-22T12:15:42.577Z,14.70
2023-03-22T12:18:17.558Z,14.70
2023-03-22T12:21:13.854Z,14.80
2023-03-22T12:23:40.609Z,14.60
2023-03-22T12:26:11.884Z,14.50
2023-03-22T12:29:01.910Z,14.50
2023-03-22T12:31:35.994Z,14.50
2023-03-22T12:34:12.394Z,14.50
2023-03-22T12:36:46.205Z,14.50
2023-03-22T12:39:25.715Z,14.50
2023-03-22T12:41:55.830Z,14.40
2023-03-22T12:44:36.196Z,14.50
2023-03-22T12:47:15.190Z,14.40
2023-03-22T12:49:56.791Z,14.50
2023-03-22T12:52:46.606Z,14.40
2023-03-22T12:55:27.294Z,14.30
2023-03-22T12:57:54.805Z,14.30
2023-03-22T13:00:38.357Z,14.20
2023-03-22T13:03:17.614Z,14.20
2023-03-22T13:05:46.904Z,14.20
2023-03-22T13:08:19.146Z,14.20
2023-03-22T13:10:59.521Z,14.30
2023-03-22T13:13:27.698Z,14.40
2023-03-22T13:15:57.543Z,14.40
2023-03-22T13:18:36.281Z,14.50
2023-03-22T13:21:21.298Z,14.50
2023-03-22T13:24:06.427Z,14.40
2023-03-22T13:26:53.137Z,14.30
2023-03-22T13:29:25.946Z,14.30
2023-03-22T13:32:28.478Z,14.40
2023-03-22T13:34:55.758Z,14.30
2023-03-22T13:37:42.189Z,14.40
2023-03-22T13:40:14.523Z,14.50
2023-03-22T13:42:42.173Z,14.60
2023-03-22T13:45:31.199Z,14.50
2023-03-22T13:48:27.753Z,14.60
2023-03-22T13:50:54.582Z,14.60
2023-03-22T13:53:30.328Z,14.60
2023-03-22T13:55:58.705Z,14.50
2023-03-22T13:58:48.453Z,14.50
2023-03-22T14:01:53.649Z,14.40
2023-03-22T14:04:30.170Z,14.40
2023-03-22T14:07:00.009Z,14.40
2023-03-22T14:09:51.331Z,14.30
2023-03-22T14:12:20.587Z,14.40
2023-03-22T14:14:55.002Z,14.40
2023-03-22T14:17:33.394Z,14.40
2023-03-22T14:20:01.843Z,14.30
